sensor_id;sensor_type;location;lat;lon;timestamp;temperature;humidity
11140;DHT22;5624;49.388;11.350;2023-08-01T00:02:19;15.80;99.90
11140;DHT22;5624;49.388;11.350;2023-08-01T00:04:44;15.70;99.90
11140;DHT22;5624;49.388;11.350;2023-08-01T00:07:10;15.80;99.90
11140;DHT22;5624;49.388;11.350;2023-08-01T00:09:35;15.70;99.90
11140;DHT22;5624;49.388;11.350;2023-08-01T00:12:01;15.70;99.90
11140;DHT22;5624;49.388;11.350;2023-08-01T00:14:26;15.70;99.90
11140;DHT22;5624;49.388;11.350;2023-08-01T00:16:52;15.60;99.90
11140;DHT22;5624;49.388;11.350;2023-08-01T00:19:18;15.60;99.90
11140;DHT22;5624;49.388;11.350;2023-08-01T00:21:44;15.60;99.90
11140;DHT22;5624;49.388;11.350;2023-08-01T00:24:09;15.60;99.90
11140;DHT22;5624;49.388;11.350;2023-08-01T00:26:35;15.60;99.90
11140;DHT22;5624;49.388;11.350;2023-08-01T00:29:01;15.50;99.90
11140;DHT22;5624;49.388;11.350;2023-08-01T00:31:26;15.50;99.90
11140;DHT22;5624;49.388;11.350;2023-08-01T00:33:52;15.60;99.90
11140;DHT22;5624;49.388;11.350;2023-08-01T00:36:18;15.60;99.90
11140;DHT22;5624;49.388;11.350;2023-08-01T00:38:43;15.60;99.90
11140;DHT22;5624;49.388;11.350;2023-08-01T00:41:09;15.50;99.90
11140;DHT22;5624;49.388;11.350;2023-08-01T00:43:35;15.60;99.90
11140;DHT22;5624;49.388;11.350;2023-08-01T00:46:04;15.50;99.90
11140;DHT22;5624;49.388;11.350;2023-08-01T00:48:31;15.60;99.90
11140;DHT22;5624;49.388;11.350;2023-08-01T00:51:02;15.50;99.90
11140;DHT22;5624;49.388;11.350;2023-08-01T00:53:28;15.50;99.90
11140;DHT22;5624;49.388;11.350;2023-08-01T00:55:55;15.50;99.90
11140;DHT22;5624;49.388;11.350;2023-08-01T00:58:21;15.50;99.90
11140;DHT22;5624;49.388;11.350;2023-08-01T01:00:47;15.50;99.90
11140;DHT22;5624;49.388;11.350;2023-08-01T01:03:13;15.60;99.90
11140;DHT22;5624;49.388;11.350;2023-08-01T01:08:23;15.70;99.90
11140;DHT22;5624;49.388;11.350;2023-08-01T01:10:49;15.70;99.90
11140;DHT22;5624;49.388;11.350;2023-08-01T01:13:14;15.70;99.90
11140;DHT22;5624;49.388;11.350;2023-08-01T01:15:40;15.70;99.90
11140;DHT22;5624;49.388;11.350;2023-08-01T01:18:05;15.80;99.90
11140;DHT22;5624;49.388;11.350;2023-08-01T01:20:35;15.70;99.90
11140;DHT22;5624;49.388;11.350;2023-08-01T01:23:03;15.70;99.90
11140;DHT22;5624;49.388;11.350;2023-08-01T01:25:30;15.70;99.90
11140;DHT22;5624;49.388;11.350;2023-08-01T01:27:57;15.70;99.90
11140;DHT22;5624;49.388;11.350;2023-08-01T01:30:23;15.80;99.90
11140;DHT22;5624;49.388;11.350;2023-08-01T01:32:50;15.80;99.90
11140;DHT22;5624;49.388;11.350;2023-08-01T01:35:15;15.80;99.90
11140;DHT22;5624;49.388;11.350;2023-08-01T01:37:41;15.70;99.90
11140;DHT22;5624;49.388;11.350;2023-08-01T01:40:07;15.70;99.90
11140;DHT22;5624;49.388;11.350;2023-08-01T01:42:32;15.70;99.90
11140;DHT22;5624;49.388;11.350;2023-08-01T01:44:58;15.70;99.90
11140;DHT22;5624;49.388;11.350;2023-08-01T01:47:23;15.70;99.90
11140;DHT22;5624;49.388;11.350;2023-08-01T01:49:49;15.60;99.90
11140;DHT22;5624;49.388;11.350;2023-08-01T01:52:14;15.60;99.90
11140;DHT22;5624;49.388;11.350;2023-08-01T01:54:40;15.60;99.90
11140;DHT22;5624;49.388;11.350;2023-08-01T01:57:05;15.60;99.90
11140;DHT22;5624;49.388;11.350;2023-08-01T01:59:31;15.60;99.90
11140;DHT22;5624;49.388;11.350;2023-08-01T02:01:56;15.60;99.90
11140;DHT22;5624;49.388;11.350;2023-08-01T02:04:22;15.70;99.90
11140;DHT22;5624;49.388;11.350;2023-08-01T02:06:47;15.70;99.90
11140;DHT22;5624;49.388;11.350;2023-08-01T02:09:13;15.60;99.90
11140;DHT22;5624;49.388;11.350;2023-08-01T02:11:39;15.60;99.90
11140;DHT22;5624;49.388;11.350;2023-08-01T02:14:04;15.70;99.90
11140;DHT22;5624;49.388;11.350;2023-08-01T02:16:30;15.70;99.90
11140;DHT22;5624;49.388;11.350;2023-08-01T02:18:56;15.70;99.90
11140;DHT22;5624;49.388;11.350;2023-08-01T02:21:21;15.70;99.90
11140;DHT22;5624;49.388;11.350;2023-08-01T02:23:47;15.70;99.90
11140;DHT22;5624;49.388;11.350;2023-08-01T02:26:13;15.70;99.90
11140;DHT22;5624;49.388;11.350;2023-08-01T02:28:38;15.70;99.90
11140;DHT22;5624;49.388;11.350;2023-08-01T02:31:04;15.60;99.90
11140;DHT22;5624;49.388;11.350;2023-08-01T02:33:29;15.60;99.90
11140;DHT22;5624;49.388;11.350;2023-08-01T02:35:55;15.60;99.90
11140;DHT22;5624;49.388;11.350;2023-08-01T02:38:20;15.60;99.90
11140;DHT22;5624;49.388;11.350;2023-08-01T02:40:46;15.50;99.90
11140;DHT22;5624;49.388;11.350;2023-08-01T02:43:11;15.50;99.90
11140;DHT22;5624;49.388;11.350;2023-08-01T02:45:37;15.40;99.90
11140;DHT22;5624;49.388;11.350;2023-08-01T02:48:02;15.50;99.90
11140;DHT22;5624;49.388;11.350;2023-08-01T02:50:28;15.50;99.90
11140;DHT22;5624;49.388;11.350;2023-08-01T02:52:53;15.50;99.90
11140;DHT22;5624;49.388;11.350;2023-08-01T02:55:19;15.40;99.90
11140;DHT22;5624;49.388;11.350;2023-08-01T02:57:45;15.40;99.90
11140;DHT22;5624;49.388;11.350;2023-08-01T03:00:11;15.50;99.90
11140;DHT22;5624;49.388;11.350;2023-08-01T03:02:39;15.50;99.90
11140;DHT22;5624;49.388;11.350;2023-08-01T03:05:08;15.40;99.90
11140;DHT22;5624;49.388;11.350;2023-08-01T03:07:34;15.50;99.90
11140;DHT22;5624;49.388;11.350;2023-08-01T03:10:00;15.50;99.90
11140;DHT22;5624;49.388;11.350;2023-08-01T03:12:25;15.50;99.90
11140;DHT22;5624;49.388;11.350;2023-08-01T03:14:51;15.50;99.90
11140;DHT22;5624;49.388;11.350;2023-08-01T03:17:16;15.50;99.90
11140;DHT22;5624;49.388;11.350;2023-08-01T03:19:42;15.50;99.90
11140;DHT22;5624;49.388;11.350;2023-08-01T03:22:09;15.50;99.90
11140;DHT22;5624;49.388;11.350;2023-08-01T03:24:35;15.60;99.90
11140;DHT22;5624;49.388;11.350;2023-08-01T03:27:01;15.50;99.90
11140;DHT22;5624;49.388;11.350;2023-08-01T03:29:26;15.60;99.90
11140;DHT22;5624;49.388;11.350;2023-08-01T03:31:52;15.60;99.90
11140;DHT22;5624;49.388;11.350;2023-08-01T03:34:18;15.60;99.90
11140;DHT22;5624;49.388;11.350;2023-08-01T03:36:44;15.60;99.90
11140;DHT22;5624;49.388;11.350;2023-08-01T03:39:09;15.60;99.90
11140;DHT22;5624;49.388;11.350;2023-08-01T03:41:35;15.60;99.90
11140;DHT22;5624;49.388;11.350;2023-08-01T03:44:01;15.60;99.90
11140;DHT22;5624;49.388;11.350;2023-08-01T03:46:26;15.60;99.90
11140;DHT22;5624;49.388;11.350;2023-08-01T03:48:52;15.60;99.90
11140;DHT22;5624;49.388;11.350;2023-08-01T03:51:18;15.60;99.90
11140;DHT22;5624;49.388;11.350;2023-08-01T03:53:44;15.50;99.90
11140;DHT22;5624;49.388;11.350;2023-08-01T03:56:10;15.50;99.90
11140;DHT22;5624;49.388;11.350;2023-08-01T03:58:36;15.50;99.90
11140;DHT22;5624;49.388;11.350;2023-08-01T04:01:02;15.50;99.90
11140;DHT22;5624;49.388;11.350;2023-08-01T04:03:27;15.50;99.90
11140;DHT22;5624;49.388;11.350;2023-08-01T04:05:53;15.50;99.90
11140;DHT22;5624;49.388;11.350;2023-08-01T04:08:19;15.50;99.90
11140;DHT22;5624;49.388;11.350;2023-08-01T04:10:44;15.50;99.90
11140;DHT22;5624;49.388;11.350;2023-08-01T04:13:10;15.50;99.90
11140;DHT22;5624;49.388;11.350;2023-08-01T04:15:35;15.50;99.90
11140;DHT22;5624;49.388;11.350;2023-08-01T04:18:01;15.50;99.90
11140;DHT22;5624;49.388;11.350;2023-08-01T04:20:26;15.50;99.90
11140;DHT22;5624;49.388;11.350;2023-08-01T04:22:52;15.50;99.90
11140;DHT22;5624;49.388;11.350;2023-08-01T04:25:18;15.50;99.90
11140;DHT22;5624;49.388;11.350;2023-08-01T04:27:43;15.50;99.90
11140;DHT22;5624;49.388;11.350;2023-08-01T04:30:09;15.50;99.90
11140;DHT22;5624;49.388;11.350;2023-08-01T04:32:35;15.50;99.90
11140;DHT22;5624;49.388;11.350;2023-08-01T04:35:00;15.50;99.90
11140;DHT22;5624;49.388;11.350;2023-08-01T04:37:26;15.50;99.90
11140;DHT22;5624;49.388;11.350;2023-08-01T04:39:51;15.50;99.90
11140;DHT22;5624;49.388;11.350;2023-08-01T04:42:17;15.40;99.90
11140;DHT22;5624;49.388;11.350;2023-08-01T04:44:42;15.50;99.90
11140;DHT22;5624;49.388;11.350;2023-08-01T04:47:08;15.40;99.90
11140;DHT22;5624;49.388;11.350;2023-08-01T04:49:33;15.50;99.90
11140;DHT22;5624;49.388;11.350;2023-08-01T04:51:59;15.50;99.90
11140;DHT22;5624;49.388;11.350;2023-08-01T04:54:25;15.50;99.90
11140;DHT22;5624;49.388;11.350;2023-08-01T04:56:51;15.50;99.90
11140;DHT22;5624;49.388;11.350;2023-08-01T04:59:16;15.50;99.90
11140;DHT22;5624;49.388;11.350;2023-08-01T05:01:42;15.50;99.90
11140;DHT22;5624;49.388;11.350;2023-08-01T05:04:07;15.50;99.90
11140;DHT22;5624;49.388;11.350;2023-08-01T05:06:33;15.50;99.90
11140;DHT22;5624;49.388;11.350;2023-08-01T05:08:59;15.50;99.90
11140;DHT22;5624;49.388;11.350;2023-08-01T05:11:24;15.50;99.90
11140;DHT22;5624;49.388;11.350;2023-08-01T05:13:50;15.50;99.90
11140;DHT22;5624;49.388;11.350;2023-08-01T05:16:15;15.50;99.90
11140;DHT22;5624;49.388;11.350;2023-08-01T05:18:41;15.60;99.90
11140;DHT22;5624;49.388;11.350;2023-08-01T05:21:06;15.60;99.90
11140;DHT22;5624;49.388;11.350;2023-08-01T05:23:32;15.60;99.90
11140;DHT22;5624;49.388;11.350;2023-08-01T05:25:58;15.70;99.90
11140;DHT22;5624;49.388;11.350;2023-08-01T05:28:23;15.60;99.90
11140;DHT22;5624;49.388;11.350;2023-08-01T05:30:49;15.60;99.90
11140;DHT22;5624;49.388;11.350;2023-08-01T05:33:14;15.70;99.90
11140;DHT22;5624;49.388;11.350;2023-08-01T05:35:40;15.70;99.90
11140;DHT22;5624;49.388;11.350;2023-08-01T05:38:05;15.70;99.90
11140;DHT22;5624;49.388;11.350;2023-08-01T05:40:31;15.70;99.90
11140;DHT22;5624;49.388;11.350;2023-08-01T05:42:57;15.70;99.90
11140;DHT22;5624;49.388;11.350;2023-08-01T05:45:22;15.80;99.90
11140;DHT22;5624;49.388;11.350;2023-08-01T05:47:48;15.80;99.90
11140;DHT22;5624;49.388;11.350;2023-08-01T05:50:13;15.80;99.90
11140;DHT22;5624;49.388;11.350;2023-08-01T05:52:40;15.80;99.90
11140;DHT22;5624;49.388;11.350;2023-08-01T05:55:06;15.90;99.90
11140;DHT22;5624;49.388;11.350;2023-08-01T05:57:31;15.90;99.90
11140;DHT22;5624;49.388;11.350;2023-08-01T05:59:57;15.90;99.90
11140;DHT22;5624;49.388;11.350;2023-08-01T06:02:23;16.00;99.90
11140;DHT22;5624;49.388;11.350;2023-08-01T06:04:48;16.00;99.90
11140;DHT22;5624;49.388;11.350;2023-08-01T06:07:14;16.00;99.90
11140;DHT22;5624;49.388;11.350;2023-08-01T06:09:39;16.10;99.90
11140;DHT22;5624;49.388;11.350;2023-08-01T06:12:05;16.00;99.90
11140;DHT22;5624;49.388;11.350;2023-08-01T06:14:31;16.00;99.90
11140;DHT22;5624;49.388;11.350;2023-08-01T06:16:56;16.00;99.90
11140;DHT22;5624;49.388;11.350;2023-08-01T06:19:22;16.00;99.90
11140;DHT22;5624;49.388;11.350;2023-08-01T06:21:47;16.00;99.90
11140;DHT22;5624;49.388;11.350;2023-08-01T06:24:13;16.00;99.90
11140;DHT22;5624;49.388;11.350;2023-08-01T06:26:38;16.00;99.90
11140;DHT22;5624;49.388;11.350;2023-08-01T06:29:04;16.20;99.90
11140;DHT22;5624;49.388;11.350;2023-08-01T06:31:30;16.10;99.90
11140;DHT22;5624;49.388;11.350;2023-08-01T06:33:55;16.20;99.90
11140;DHT22;5624;49.388;11.350;2023-08-01T06:36:21;16.30;99.90
11140;DHT22;5624;49.388;11.350;2023-08-01T06:38:46;16.30;99.90
11140;DHT22;5624;49.388;11.350;2023-08-01T06:41:12;16.30;99.90
11140;DHT22;5624;49.388;11.350;2023-08-01T06:43:37;16.40;99.90
11140;DHT22;5624;49.388;11.350;2023-08-01T06:46:04;16.40;99.90
11140;DHT22;5624;49.388;11.350;2023-08-01T06:48:30;16.40;99.90
11140;DHT22;5624;49.388;11.350;2023-08-01T06:50:55;16.40;99.90
11140;DHT22;5624;49.388;11.350;2023-08-01T06:53:21;16.40;99.90
11140;DHT22;5624;49.388;11.350;2023-08-01T06:55:46;16.30;99.90
11140;DHT22;5624;49.388;11.350;2023-08-01T06:58:12;16.30;99.90
11140;DHT22;5624;49.388;11.350;2023-08-01T07:00:38;16.30;99.90
11140;DHT22;5624;49.388;11.350;2023-08-01T07:03:03;16.40;99.90
11140;DHT22;5624;49.388;11.350;2023-08-01T07:05:29;16.30;99.90
11140;DHT22;5624;49.388;11.350;2023-08-01T07:07:54;16.30;99.90
11140;DHT22;5624;49.388;11.350;2023-08-01T07:10:20;16.30;99.90
11140;DHT22;5624;49.388;11.350;2023-08-01T07:12:46;16.20;99.90
11140;DHT22;5624;49.388;11.350;2023-08-01T07:15:11;16.20;99.90
11140;DHT22;5624;49.388;11.350;2023-08-01T07:17:37;16.20;99.90
11140;DHT22;5624;49.388;11.350;2023-08-01T07:20:02;16.30;99.90
11140;DHT22;5624;49.388;11.350;2023-08-01T07:22:28;16.40;99.90
11140;DHT22;5624;49.388;11.350;2023-08-01T07:24:54;16.50;99.90
11140;DHT22;5624;49.388;11.350;2023-08-01T07:27:20;16.50;99.90
11140;DHT22;5624;49.388;11.350;2023-08-01T07:29:46;16.50;99.90
11140;DHT22;5624;49.388;11.350;2023-08-01T07:32:11;16.60;99.90
11140;DHT22;5624;49.388;11.350;2023-08-01T07:34:37;16.60;99.90
11140;DHT22;5624;49.388;11.350;2023-08-01T07:37:03;16.60;99.90
11140;DHT22;5624;49.388;11.350;2023-08-01T07:39:28;16.60;99.90
11140;DHT22;5624;49.388;11.350;2023-08-01T07:41:55;16.60;99.90
11140;DHT22;5624;49.388;11.350;2023-08-01T07:44:21;16.60;99.90
11140;DHT22;5624;49.388;11.350;2023-08-01T07:46:47;16.60;99.90
11140;DHT22;5624;49.388;11.350;2023-08-01T07:49:12;16.60;99.90
11140;DHT22;5624;49.388;11.350;2023-08-01T07:51:38;16.50;99.90
11140;DHT22;5624;49.388;11.350;2023-08-01T07:54:03;16.50;99.90
11140;DHT22;5624;49.388;11.350;2023-08-01T07:56:29;16.50;99.90
11140;DHT22;5624;49.388;11.350;2023-08-01T07:58:54;16.50;99.90
11140;DHT22;5624;49.388;11.350;2023-08-01T08:01:20;16.40;99.90
11140;DHT22;5624;49.388;11.350;2023-08-01T08:03:45;16.40;99.90
11140;DHT22;5624;49.388;11.350;2023-08-01T08:06:11;16.40;99.90
11140;DHT22;5624;49.388;11.350;2023-08-01T08:08:36;16.50;99.90
11140;DHT22;5624;49.388;11.350;2023-08-01T08:11:03;16.50;99.90
11140;DHT22;5624;49.388;11.350;2023-08-01T08:13:29;16.50;99.90
11140;DHT22;5624;49.388;11.350;2023-08-01T08:15:58;16.60;99.90
11140;DHT22;5624;49.388;11.350;2023-08-01T08:18:24;16.70;99.90
11140;DHT22;5624;49.388;11.350;2023-08-01T08:20:49;16.80;99.90
11140;DHT22;5624;49.388;11.350;2023-08-01T08:23:15;16.80;99.90
11140;DHT22;5624;49.388;11.350;2023-08-01T08:25:42;16.80;99.90
11140;DHT22;5624;49.388;11.350;2023-08-01T08:28:08;16.80;99.90
11140;DHT22;5624;49.388;11.350;2023-08-01T08:30:34;16.80;99.90
11140;DHT22;5624;49.388;11.350;2023-08-01T08:33:00;16.70;99.90
11140;DHT22;5624;49.388;11.350;2023-08-01T08:35:30;16.70;99.90
11140;DHT22;5624;49.388;11.350;2023-08-01T08:37:56;16.70;99.90
11140;DHT22;5624;49.388;11.350;2023-08-01T08:40:22;16.60;99.90
11140;DHT22;5624;49.388;11.350;2023-08-01T08:42:48;16.60;99.90
11140;DHT22;5624;49.388;11.350;2023-08-01T08:45:18;16.60;99.90
11140;DHT22;5624;49.388;11.350;2023-08-01T08:47:44;16.50;99.90
11140;DHT22;5624;49.388;11.350;2023-08-01T08:50:13;16.50;99.90
11140;DHT22;5624;49.388;11.350;2023-08-01T08:52:39;16.40;99.90
11140;DHT22;5624;49.388;11.350;2023-08-01T08:55:06;16.40;99.90
11140;DHT22;5624;49.388;11.350;2023-08-01T08:57:32;16.40;99.90
11140;DHT22;5624;49.388;11.350;2023-08-01T08:59:59;16.30;99.90
11140;DHT22;5624;49.388;11.350;2023-08-01T09:02:30;16.30;99.90
11140;DHT22;5624;49.388;11.350;2023-08-01T09:04:57;16.20;99.90
11140;DHT22;5624;49.388;11.350;2023-08-01T09:07:24;16.30;99.90
11140;DHT22;5624;49.388;11.350;2023-08-01T09:09:52;16.30;99.90
11140;DHT22;5624;49.388;11.350;2023-08-01T09:12:17;16.30;99.90
11140;DHT22;5624;49.388;11.350;2023-08-01T09:14:43;16.30;99.90
11140;DHT22;5624;49.388;11.350;2023-08-01T09:17:09;16.20;99.90
11140;DHT22;5624;49.388;11.350;2023-08-01T09:19:35;16.20;99.90
11140;DHT22;5624;49.388;11.350;2023-08-01T09:22:02;16.30;99.90
11140;DHT22;5624;49.388;11.350;2023-08-01T09:24:27;16.50;99.90
11140;DHT22;5624;49.388;11.350;2023-08-01T09:27:02;16.60;99.90
11140;DHT22;5624;49.388;11.350;2023-08-01T09:29:31;16.90;99.90
11140;DHT22;5624;49.388;11.350;2023-08-01T09:31:58;17.00;99.90
11140;DHT22;5624;49.388;11.350;2023-08-01T09:34:27;17.30;99.90
11140;DHT22;5624;49.388;11.350;2023-08-01T09:36:59;17.50;99.90
11140;DHT22;5624;49.388;11.350;2023-08-01T09:39:26;17.50;99.90
11140;DHT22;5624;49.388;11.350;2023-08-01T09:41:59;17.50;99.80
11140;DHT22;5624;49.388;11.350;2023-08-01T09:44:26;17.40;99.10
11140;DHT22;5624;49.388;11.350;2023-08-01T09:46:59;17.50;98.90
11140;DHT22;5624;49.388;11.350;2023-08-01T09:49:26;17.60;99.30
11140;DHT22;5624;49.388;11.350;2023-08-01T09:51:52;17.90;98.70
11140;DHT22;5624;49.388;11.350;2023-08-01T09:54:18;18.10;97.90
11140;DHT22;5624;49.388;11.350;2023-08-01T09:56:49;18.00;96.00
11140;DHT22;5624;49.388;11.350;2023-08-01T09:59:23;17.90;97.00
11140;DHT22;5624;49.388;11.350;2023-08-01T10:01:50;17.90;95.20
11140;DHT22;5624;49.388;11.350;2023-08-01T10:04:23;17.90;97.00
11140;DHT22;5624;49.388;11.350;2023-08-01T10:07:13;18.00;95.00
11140;DHT22;5624;49.388;11.350;2023-08-01T10:09:39;17.90;95.80
11140;DHT22;5624;49.388;11.350;2023-08-01T10:12:06;17.70;96.40
11140;DHT22;5624;49.388;11.350;2023-08-01T10:14:33;17.60;96.10
11140;DHT22;5624;49.388;11.350;2023-08-01T10:16:59;17.60;97.20
11140;DHT22;5624;49.388;11.350;2023-08-01T10:19:24;17.50;97.90
11140;DHT22;5624;49.388;11.350;2023-08-01T10:21:52;17.60;97.60
11140;DHT22;5624;49.388;11.350;2023-08-01T10:24:19;17.70;97.60
11140;DHT22;5624;49.388;11.350;2023-08-01T10:26:45;17.80;97.20
11140;DHT22;5624;49.388;11.350;2023-08-01T10:29:14;17.90;95.90
11140;DHT22;5624;49.388;11.350;2023-08-01T10:31:39;17.90;96.20
11140;DHT22;5624;49.388;11.350;2023-08-01T10:34:15;17.90;96.50
11140;DHT22;5624;49.388;11.350;2023-08-01T10:36:52;17.80;95.20
11140;DHT22;5624;49.388;11.350;2023-08-01T10:39:22;17.60;96.20
11140;DHT22;5624;49.388;11.350;2023-08-01T10:41:57;17.40;98.10
11140;DHT22;5624;49.388;11.350;2023-08-01T10:44:23;17.20;98.60
11140;DHT22;5624;49.388;11.350;2023-08-01T10:46:57;17.10;99.90
11140;DHT22;5624;49.388;11.350;2023-08-01T10:49:43;17.20;99.90
11140;DHT22;5624;49.388;11.350;2023-08-01T10:52:17;17.10;99.90
11140;DHT22;5624;49.388;11.350;2023-08-01T10:54:46;17.00;99.50
11140;DHT22;5624;49.388;11.350;2023-08-01T10:57:18;17.00;99.90
11140;DHT22;5624;49.388;11.350;2023-08-01T10:59:44;17.00;99.90
11140;DHT22;5624;49.388;11.350;2023-08-01T11:02:10;17.00;99.90
11140;DHT22;5624;49.388;11.350;2023-08-01T11:04:35;16.90;99.90
11140;DHT22;5624;49.388;11.350;2023-08-01T11:07:01;16.90;99.90
11140;DHT22;5624;49.388;11.350;2023-08-01T11:09:28;17.00;99.90
11140;DHT22;5624;49.388;11.350;2023-08-01T11:11:55;17.20;99.90
11140;DHT22;5624;49.388;11.350;2023-08-01T11:14:26;17.20;99.90
11140;DHT22;5624;49.388;11.350;2023-08-01T11:16:57;17.40;99.90
11140;DHT22;5624;49.388;11.350;2023-08-01T11:19:27;17.70;99.90
11140;DHT22;5624;49.388;11.350;2023-08-01T11:21:54;18.00;99.60
11140;DHT22;5624;49.388;11.350;2023-08-01T11:24:24;18.30;98.60
11140;DHT22;5624;49.388;11.350;2023-08-01T11:26:51;18.60;95.40
11140;DHT22;5624;49.388;11.350;2023-08-01T11:29:18;18.80;94.50
11140;DHT22;5624;49.388;11.350;2023-08-01T11:31:58;19.00;94.30
11140;DHT22;5624;49.388;11.350;2023-08-01T11:34:24;19.50;93.80
11140;DHT22;5624;49.388;11.350;2023-08-01T11:36:50;19.80;90.80
11140;DHT22;5624;49.388;11.350;2023-08-01T11:39:16;20.10;88.90
11140;DHT22;5624;49.388;11.350;2023-08-01T11:41:43;20.20;85.30
11140;DHT22;5624;49.388;11.350;2023-08-01T11:44:15;19.90;85.20
11140;DHT22;5624;49.388;11.350;2023-08-01T11:46:41;19.70;87.10
11140;DHT22;5624;49.388;11.350;2023-08-01T11:49:07;19.80;87.80
11140;DHT22;5624;49.388;11.350;2023-08-01T11:51:40;19.70;86.20
11140;DHT22;5624;49.388;11.350;2023-08-01T11:54:06;19.60;86.30
11140;DHT22;5624;49.388;11.350;2023-08-01T11:56:33;19.70;85.40
11140;DHT22;5624;49.388;11.350;2023-08-01T11:58:59;19.80;86.90
11140;DHT22;5624;49.388;11.350;2023-08-01T12:01:25;19.90;85.40
11140;DHT22;5624;49.388;11.350;2023-08-01T12:03:53;19.90;84.40
11140;DHT22;5624;49.388;11.350;2023-08-01T12:06:20;19.90;84.30
11140;DHT22;5624;49.388;11.350;2023-08-01T12:08:49;19.80;85.20
11140;DHT22;5624;49.388;11.350;2023-08-01T12:11:27;19.80;85.20
11140;DHT22;5624;49.388;11.350;2023-08-01T12:14:06;19.80;86.10
11140;DHT22;5624;49.388;11.350;2023-08-01T12:16:33;19.90;85.10
11140;DHT22;5624;49.388;11.350;2023-08-01T12:18:59;20.00;83.70
11140;DHT22;5624;49.388;11.350;2023-08-01T12:21:24;20.00;84.20
11140;DHT22;5624;49.388;11.350;2023-08-01T12:23:50;19.90;83.90
11140;DHT22;5624;49.388;11.350;2023-08-01T12:26:15;19.70;83.30
11140;DHT22;5624;49.388;11.350;2023-08-01T12:28:41;19.40;85.00
11140;DHT22;5624;49.388;11.350;2023-08-01T12:31:06;19.30;87.30
11140;DHT22;5624;49.388;11.350;2023-08-01T12:33:33;19.00;86.60
11140;DHT22;5624;49.388;11.350;2023-08-01T12:36:02;18.80;87.20
11140;DHT22;5624;49.388;11.350;2023-08-01T12:38:28;18.40;89.70
11140;DHT22;5624;49.388;11.350;2023-08-01T12:40:54;18.10;89.00
11140;DHT22;5624;49.388;11.350;2023-08-01T12:43:19;18.10;89.30
11140;DHT22;5624;49.388;11.350;2023-08-01T12:45:46;18.70;90.70
11140;DHT22;5624;49.388;11.350;2023-08-01T12:48:12;19.40;88.40
11140;DHT22;5624;49.388;11.350;2023-08-01T12:50:37;20.00;84.50
11140;DHT22;5624;49.388;11.350;2023-08-01T12:53:03;20.30;83.40
11140;DHT22;5624;49.388;11.350;2023-08-01T12:55:29;20.40;80.90
11140;DHT22;5624;49.388;11.350;2023-08-01T12:57:54;20.60;79.20
11140;DHT22;5624;49.388;11.350;2023-08-01T13:00:20;20.60;79.20
11140;DHT22;5624;49.388;11.350;2023-08-01T13:02:45;20.60;76.70
11140;DHT22;5624;49.388;11.350;2023-08-01T13:05:12;20.30;75.60
11140;DHT22;5624;49.388;11.350;2023-08-01T13:07:38;20.30;75.60
11140;DHT22;5624;49.388;11.350;2023-08-01T13:10:04;20.30;74.50
11140;DHT22;5624;49.388;11.350;2023-08-01T13:12:29;20.40;74.10
11140;DHT22;5624;49.388;11.350;2023-08-01T13:14:55;20.30;72.40
11140;DHT22;5624;49.388;11.350;2023-08-01T13:17:20;20.30;73.50
11140;DHT22;5624;49.388;11.350;2023-08-01T13:19:46;20.10;71.90
11140;DHT22;5624;49.388;11.350;2023-08-01T13:22:12;19.90;74.00
11140;DHT22;5624;49.388;11.350;2023-08-01T13:24:38;19.50;74.50
11140;DHT22;5624;49.388;11.350;2023-08-01T13:27:04;19.30;76.00
11140;DHT22;5624;49.388;11.350;2023-08-01T13:29:30;19.00;76.70
11140;DHT22;5624;49.388;11.350;2023-08-01T13:31:55;18.60;78.80
11140;DHT22;5624;49.388;11.350;2023-08-01T13:34:21;18.40;80.30
11140;DHT22;5624;49.388;11.350;2023-08-01T13:36:46;18.10;81.30
11140;DHT22;5624;49.388;11.350;2023-08-01T13:39:12;17.80;82.00
11140;DHT22;5624;49.388;11.350;2023-08-01T13:41:37;17.50;84.50
11140;DHT22;5624;49.388;11.350;2023-08-01T13:44:03;17.30;85.80
11140;DHT22;5624;49.388;11.350;2023-08-01T13:46:29;17.20;86.90
11140;DHT22;5624;49.388;11.350;2023-08-01T13:48:54;17.20;87.00
11140;DHT22;5624;49.388;11.350;2023-08-01T13:51:20;17.40;88.10
11140;DHT22;5624;49.388;11.350;2023-08-01T13:53:45;17.70;87.80
11140;DHT22;5624;49.388;11.350;2023-08-01T13:56:11;18.20;87.20
11140;DHT22;5624;49.388;11.350;2023-08-01T13:58:38;18.70;83.60
11140;DHT22;5624;49.388;11.350;2023-08-01T14:01:05;19.00;82.10
11140;DHT22;5624;49.388;11.350;2023-08-01T14:03:33;19.00;80.20
11140;DHT22;5624;49.388;11.350;2023-08-01T14:06:10;18.90;80.00
11140;DHT22;5624;49.388;11.350;2023-08-01T14:08:37;18.60;79.00
11140;DHT22;5624;49.388;11.350;2023-08-01T14:11:04;18.40;79.70
11140;DHT22;5624;49.388;11.350;2023-08-01T14:13:30;18.10;80.60
11140;DHT22;5624;49.388;11.350;2023-08-01T14:15:56;18.00;82.00
11140;DHT22;5624;49.388;11.350;2023-08-01T14:18:22;17.80;82.60
11140;DHT22;5624;49.388;11.350;2023-08-01T14:20:47;17.60;83.70
11140;DHT22;5624;49.388;11.350;2023-08-01T14:23:13;17.40;85.20
11140;DHT22;5624;49.388;11.350;2023-08-01T14:25:38;17.20;85.80
11140;DHT22;5624;49.388;11.350;2023-08-01T14:28:04;17.00;88.30
11140;DHT22;5624;49.388;11.350;2023-08-01T14:30:30;16.80;89.30
11140;DHT22;5624;49.388;11.350;2023-08-01T14:33:02;16.70;91.70
11140;DHT22;5624;49.388;11.350;2023-08-01T14:35:28;16.60;94.00
11140;DHT22;5624;49.388;11.350;2023-08-01T14:37:54;16.60;93.70
11140;DHT22;5624;49.388;11.350;2023-08-01T14:40:21;16.70;94.80
11140;DHT22;5624;49.388;11.350;2023-08-01T14:42:47;16.80;93.40
11140;DHT22;5624;49.388;11.350;2023-08-01T14:45:12;16.90;93.50
11140;DHT22;5624;49.388;11.350;2023-08-01T14:47:40;17.00;93.60
11140;DHT22;5624;49.388;11.350;2023-08-01T14:50:06;17.10;94.40
11140;DHT22;5624;49.388;11.350;2023-08-01T14:52:32;17.50;94.10
11140;DHT22;5624;49.388;11.350;2023-08-01T14:54:57;17.70;93.00
11140;DHT22;5624;49.388;11.350;2023-08-01T14:57:23;17.80;92.40
11140;DHT22;5624;49.388;11.350;2023-08-01T14:59:49;17.80;91.10
11140;DHT22;5624;49.388;11.350;2023-08-01T15:02:15;17.80;92.10
11140;DHT22;5624;49.388;11.350;2023-08-01T15:04:41;17.90;92.50
11140;DHT22;5624;49.388;11.350;2023-08-01T15:07:06;17.90;91.10
11140;DHT22;5624;49.388;11.350;2023-08-01T15:09:33;17.90;90.50
11140;DHT22;5624;49.388;11.350;2023-08-01T15:11:58;18.00;89.60
11140;DHT22;5624;49.388;11.350;2023-08-01T15:14:24;18.20;89.60
11140;DHT22;5624;49.388;11.350;2023-08-01T15:16:50;18.20;87.90
11140;DHT22;5624;49.388;11.350;2023-08-01T15:19:15;18.10;86.80
11140;DHT22;5624;49.388;11.350;2023-08-01T15:21:41;18.20;87.80
11140;DHT22;5624;49.388;11.350;2023-08-01T15:24:06;18.20;86.80
11140;DHT22;5624;49.388;11.350;2023-08-01T15:26:32;18.10;87.50
11140;DHT22;5624;49.388;11.350;2023-08-01T15:28:57;18.20;88.50